createdAt,value
2023-11-19T00:01:54.226Z,11.15
2023-11-19T00:04:56.506Z,13.40
2023-11-19T00:07:58.615Z,12.75
2023-11-19T00:11:02.474Z,11.77
2023-11-19T00:14:05.215Z,13.73
2023-11-19T00:17:07.277Z,14.43
2023-11-19T00:20:09.619Z,14.10
2023-11-19T00:23:11.749Z,13.93
2023-11-19T00:26:14.589Z,14.77
2023-11-19T00:29:20.027Z,15.05
2023-11-19T00:32:23.984Z,14.77
2023-11-19T00:35:26.117Z,13.65
2023-11-19T00:38:28.389Z,14.27
2023-11-19T00:41:30.451Z,14.07
2023-11-19T00:44:32.563Z,15.57
2023-11-19T00:47:34.678Z,18.35
2023-11-19T00:50:38.244Z,16.73
2023-11-19T00:53:40.939Z,17.08
2023-11-19T00:56:43.024Z,18.15
2023-11-19T00:59:45.428Z,15.07
2023-11-19T01:02:47.869Z,13.75
2023-11-19T01:05:50.161Z,20.05
2023-11-19T01:08:52.900Z,18.98
2023-11-19T01:11:55.301Z,17.33
2023-11-19T01:14:59.187Z,18.17
2023-11-19T01:18:03.315Z,16.73
2023-11-19T01:21:05.851Z,17.20
2023-11-19T01:24:10.609Z,17.00
2023-11-19T01:27:13.666Z,16.23
2023-11-19T01:30:15.841Z,17.50
2023-11-19T01:33:18.029Z,17.35
2023-11-19T01:36:20.111Z,17.23
2023-11-19T01:39:22.358Z,19.60
2023-11-19T01:42:26.761Z,17.23
2023-11-19T01:45:30.535Z,17.15
2023-11-19T01:48:33.970Z,16.10
2023-11-19T01:51:36.292Z,17.10
2023-11-19T01:54:38.411Z,17.67
2023-11-19T01:57:42.412Z,16.65
2023-11-19T02:00:45.703Z,17.67
2023-11-19T02:03:48.490Z,17.17
2023-11-19T02:06:53.892Z,16.15
2023-11-19T02:09:56.049Z,17.42
2023-11-19T02:13:06.277Z,15.40
2023-11-19T02:16:10.838Z,18.80
2023-11-19T02:19:13.126Z,18.17
2023-11-19T02:22:15.274Z,17.63
2023-11-19T02:25:30.826Z,16.88
2023-11-19T02:28:34.214Z,16.98
2023-11-19T02:31:36.497Z,18.35
2023-11-19T02:34:38.618Z,18.20
2023-11-19T02:37:40.685Z,18.50
2023-11-19T02:40:42.825Z,19.45
2023-11-19T02:43:44.968Z,21.53
2023-11-19T02:46:49.550Z,26.27
2023-11-19T02:49:51.685Z,25.23
2023-11-19T02:52:55.263Z,24.27
2023-11-19T02:56:03.605Z,23.50
2023-11-19T02:59:13.145Z,24.60
2023-11-19T03:02:17.503Z,23.13
2023-11-19T03:05:21.030Z,19.95
2023-11-19T03:08:23.998Z,20.00
2023-11-19T03:11:26.432Z,17.42
2023-11-19T03:14:28.773Z,15.97
2023-11-19T03:17:30.923Z,17.30
2023-11-19T03:20:33.299Z,15.57
2023-11-19T03:23:36.078Z,15.80
2023-11-19T03:26:38.528Z,18.98
2023-11-19T03:29:40.611Z,16.15
2023-11-19T03:32:42.796Z,16.33
2023-11-19T03:35:44.908Z,17.98
2023-11-19T03:38:47.741Z,16.88
2023-11-19T03:41:49.849Z,17.85
2023-11-19T03:44:53.069Z,22.37
2023-11-19T03:47:55.222Z,19.35
2023-11-19T03:50:57.304Z,18.17
2023-11-19T03:54:00.376Z,18.53
2023-11-19T03:57:04.642Z,17.45
2023-11-19T04:00:15.562Z,16.88
2023-11-19T04:03:17.755Z,17.63
2023-11-19T04:06:19.830Z,16.95
2023-11-19T04:09:21.965Z,15.25
2023-11-19T04:12:24.144Z,14.63
2023-11-19T04:15:26.346Z,15.17
2023-11-19T04:18:28.445Z,16.20
2023-11-19T04:21:30.534Z,14.32
2023-11-19T04:24:33.166Z,14.67
2023-11-19T04:27:35.290Z,13.13
2023-11-19T04:30:39.062Z,14.63
2023-11-19T04:33:41.171Z,15.52
2023-11-19T04:36:45.046Z,15.35
2023-11-19T04:39:47.628Z,16.02
2023-11-19T04:42:49.872Z,16.80
2023-11-19T04:45:51.967Z,14.83
2023-11-19T04:48:54.060Z,16.83
2023-11-19T04:51:56.162Z,14.32
2023-11-19T04:54:58.257Z,17.50
2023-11-19T04:58:00.327Z,15.55
2023-11-19T05:01:02.833Z,18.95
2023-11-19T05:04:05.195Z,17.38
2023-11-19T05:07:08.489Z,17.48
2023-11-19T05:10:10.914Z,17.00
2023-11-19T05:13:14.057Z,16.27
2023-11-19T05:16:16.622Z,11.33
2023-11-19T05:19:18.928Z,11.27
2023-11-19T05:22:22.091Z,9.75
2023-11-19T05:25:24.316Z,9.57
2023-11-19T05:28:27.339Z,9.45
2023-11-19T05:31:29.531Z,7.90
2023-11-19T05:34:31.652Z,10.02
2023-11-19T05:37:35.360Z,9.40
2023-11-19T05:40:39.962Z,8.80
2023-11-19T05:43:42.218Z,9.18
2023-11-19T05:46:45.285Z,8.47
2023-11-19T05:49:47.429Z,7.43
2023-11-19T05:52:49.520Z,7.18
2023-11-19T05:55:56.057Z,9.07
2023-11-19T05:58:58.249Z,8.80
2023-11-19T06:02:00.310Z,8.98
2023-11-19T06:05:02.658Z,10.55
2023-11-19T06:08:04.804Z,9.95
2023-11-19T06:11:07.104Z,11.30
2023-11-19T06:14:09.182Z,14.20
2023-11-19T06:17:12.490Z,15.17
2023-11-19T06:20:15.553Z,14.25
2023-11-19T06:23:17.689Z,16.75
2023-11-19T06:26:19.721Z,15.33
2023-11-19T06:29:21.927Z,14.15
2023-11-19T06:32:24.052Z,12.23
2023-11-19T06:35:26.070Z,11.02
2023-11-19T06:38:28.154Z,12.40
2023-11-19T06:41:30.412Z,17.13
2023-11-19T06:44:32.665Z,15.25
2023-11-19T06:47:34.791Z,13.90
2023-11-19T06:50:37.031Z,13.95
2023-11-19T06:53:40.817Z,14.25
2023-11-19T06:56:43.023Z,16.97
2023-11-19T06:59:45.372Z,14.98
2023-11-19T07:02:47.650Z,13.48
2023-11-19T07:05:49.909Z,16.15
2023-11-19T07:08:52.022Z,13.27
2023-11-19T07:11:54.863Z,13.93
2023-11-19T07:14:57.152Z,11.68
2023-11-19T07:18:02.755Z,10.77
2023-11-19T07:21:05.951Z,11.18
2023-11-19T07:24:08.430Z,12.38
2023-11-19T07:27:10.550Z,13.73
2023-11-19T07:30:12.703Z,13.00
2023-11-19T07:33:15.075Z,14.70
2023-11-19T07:36:17.769Z,12.88
2023-11-19T07:39:21.908Z,15.32
2023-11-19T07:42:25.125Z,14.35
2023-11-19T07:45:28.557Z,8.35
2023-11-19T07:48:30.660Z,12.77
2023-11-19T07:51:32.810Z,14.10
2023-11-19T07:54:34.978Z,11.30
2023-11-19T07:57:37.790Z,13.20
2023-11-19T08:00:40.060Z,11.27
2023-11-19T08:06:59.616Z,10.15
2023-11-19T08:10:01.721Z,10.07
2023-11-19T08:13:03.934Z,10.25
2023-11-19T08:16:07.035Z,12.55
2023-11-19T08:19:09.819Z,13.37
2023-11-19T08:22:11.990Z,13.88
2023-11-19T08:25:14.288Z,11.05
2023-11-19T08:28:16.366Z,15.13
2023-11-19T08:31:18.490Z,10.00
2023-11-19T08:34:20.803Z,9.75
2023-11-19T08:37:23.981Z,10.57
2023-11-19T08:40:30.862Z,9.68
2023-11-19T08:43:33.176Z,9.07
2023-11-19T08:46:35.289Z,8.35
2023-11-19T08:49:37.360Z,9.50
2023-11-19T08:52:39.528Z,16.55
2023-11-19T08:55:41.637Z,14.25
2023-11-19T08:58:43.716Z,16.90
2023-11-19T09:01:46.029Z,9.10
2023-11-19T09:04:49.757Z,15.38
2023-11-19T09:07:52.968Z,10.45
2023-11-19T09:10:55.077Z,5.57
2023-11-19T09:13:57.191Z,10.35
2023-11-19T09:16:59.467Z,11.77
2023-11-19T09:20:01.816Z,8.40
2023-11-19T09:23:03.931Z,10.27
2023-11-19T09:26:06.630Z,10.73
2023-11-19T09:29:09.065Z,6.80
2023-11-19T09:32:11.262Z,9.98
2023-11-19T09:35:15.942Z,7.05
2023-11-19T09:38:18.488Z,9.40
2023-11-19T09:41:20.830Z,10.15
2023-11-19T09:44:23.257Z,9.40
2023-11-19T09:47:26.758Z,10.30
2023-11-19T09:50:29.467Z,9.53
2023-11-19T09:53:32.144Z,10.77
2023-11-19T09:56:34.372Z,9.25
2023-11-19T09:59:37.926Z,10.93
2023-11-19T10:02:40.287Z,9.63
2023-11-19T10:05:42.616Z,10.48
2023-11-19T10:08:45.293Z,13.35
2023-11-19T10:11:47.602Z,13.10
2023-11-19T10:14:50.083Z,9.85
2023-11-19T10:17:52.544Z,8.27
2023-11-19T10:20:56.081Z,8.30
2023-11-19T10:24:01.070Z,8.63
2023-11-19T10:27:04.645Z,12.20
2023-11-19T10:30:10.141Z,10.20
2023-11-19T10:33:22.132Z,10.85
2023-11-19T10:36:38.189Z,9.00
2023-11-19T10:39:54.621Z,10.05
2023-11-19T10:43:05.614Z,9.63
2023-11-19T10:46:14.867Z,8.35
2023-11-19T10:49:17.055Z,10.23
2023-11-19T10:52:22.726Z,10.33
2023-11-19T10:55:27.377Z,8.93
2023-11-19T10:58:31.107Z,9.95
2023-11-19T11:01:39.573Z,8.83
2023-11-19T11:04:43.320Z,8.95
2023-11-19T11:07:45.730Z,10.35
2023-11-19T11:13:59.238Z,10.05
2023-11-19T11:17:02.574Z,9.32
2023-11-19T11:20:05.311Z,8.55
2023-11-19T11:23:10.438Z,8.47
2023-11-19T11:26:32.316Z,10.10
2023-11-19T11:29:34.520Z,10.20
2023-11-19T11:32:51.936Z,9.53
2023-11-19T11:36:10.390Z,14.80
2023-11-19T11:39:12.709Z,15.70
2023-11-19T11:42:23.798Z,9.35
2023-11-19T11:45:55.425Z,9.65
2023-11-19T11:48:58.613Z,10.43
2023-11-19T11:52:01.449Z,9.80
2023-11-19T11:55:10.064Z,11.67
2023-11-19T11:58:12.248Z,11.60
2023-11-19T12:01:21.437Z,10.70
2023-11-19T12:04:27.133Z,15.17
2023-11-19T12:07:29.246Z,15.90
2023-11-19T12:10:34.652Z,9.98
2023-11-19T12:13:49.932Z,12.98
2023-11-19T12:16:52.156Z,14.07
2023-11-19T12:19:54.670Z,11.85
2023-11-19T12:22:56.939Z,13.68
2023-11-19T12:25:59.960Z,10.80
2023-11-19T12:29:03.760Z,14.40
2023-11-19T12:35:12.935Z,14.27
2023-11-19T12:38:22.217Z,26.65
2023-11-19T12:41:24.426Z,8.20
2023-11-19T12:44:26.515Z,15.52
2023-11-19T12:47:28.642Z,12.23
2023-11-19T12:50:30.730Z,12.20
2023-11-19T12:53:48.052Z,12.90
2023-11-19T12:56:56.395Z,14.37
2023-11-19T12:59:58.561Z,12.90
2023-11-19T13:03:00.628Z,14.80
2023-11-19T13:06:06.533Z,13.50
2023-11-19T13:09:11.060Z,19.85
2023-11-19T13:12:14.316Z,16.63
2023-11-19T13:15:26.725Z,20.45
2023-11-19T13:18:44.601Z,13.55
2023-11-19T13:21:48.559Z,12.20
2023-11-19T13:24:50.766Z,10.45
2023-11-19T13:27:53.199Z,10.37
2023-11-19T13:30:55.436Z,10.18
2023-11-19T13:33:59.521Z,9.32
2023-11-19T13:37:01.934Z,7.20
2023-11-19T13:40:04.604Z,7.65
2023-11-19T13:43:06.897Z,5.10
2023-11-19T13:46:11.635Z,7.82
2023-11-19T13:49:14.213Z,12.13
2023-11-19T13:52:16.364Z,11.10
2023-11-19T13:55:19.392Z,9.45
2023-11-19T13:58:21.497Z,8.13
2023-11-19T14:01:26.559Z,9.75
2023-11-19T14:04:28.903Z,9.27
2023-11-19T14:07:31.011Z,14.37
2023-11-19T14:10:33.178Z,12.70
2023-11-19T14:13:35.855Z,10.50
2023-11-19T14:16:38.867Z,9.43
2023-11-19T14:19:41.185Z,7.70
2023-11-19T14:22:44.296Z,8.98
2023-11-19T14:25:46.368Z,9.50
2023-11-19T14:31:55.143Z,13.45
2023-11-19T14:34:57.338Z,11.43
2023-11-19T14:37:59.427Z,17.23
2023-11-19T14:41:01.702Z,10.95
2023-11-19T14:44:04.608Z,9.48
2023-11-19T14:47:06.836Z,10.05
2023-11-19T14:50:10.167Z,12.88
2023-11-19T14:53:12.365Z,14.00
2023-11-19T14:56:14.573Z,8.77
2023-11-19T14:59:16.656Z,8.23
2023-11-19T15:02:19.324Z,8.88
2023-11-19T15:05:21.422Z,10.02
2023-11-19T15:08:23.610Z,9.37
2023-11-19T15:11:25.704Z,9.82
2023-11-19T15:14:27.843Z,10.98
2023-11-19T15:17:29.970Z,18.65
2023-11-19T15:20:32.676Z,13.93
2023-11-19T15:23:34.854Z,14.13
2023-11-19T15:26:37.068Z,12.10
2023-11-19T15:32:45.820Z,9.25
2023-11-19T15:35:48.041Z,11.13
2023-11-19T15:41:56.534Z,12.40
2023-11-19T15:44:58.633Z,12.52
2023-11-19T15:48:00.684Z,10.43
2023-11-19T15:51:03.942Z,13.10
2023-11-19T15:54:06.660Z,13.13
2023-11-19T15:57:09.057Z,15.15
2023-11-19T16:00:12.303Z,13.30
2023-11-19T16:03:14.988Z,14.00
2023-11-19T16:06:17.268Z,12.77
2023-11-19T16:09:20.449Z,12.53
2023-11-19T16:12:22.554Z,14.25
2023-11-19T16:18:29.767Z,16.27
2023-11-19T16:21:31.879Z,18.10
2023-11-19T16:24:33.935Z,21.58
2023-11-19T16:27:36.090Z,16.55
2023-11-19T16:30:38.212Z,21.13
2023-11-19T16:33:40.329Z,23.33
2023-11-19T16:36:42.438Z,21.65
2023-11-19T16:39:45.278Z,28.10
2023-11-19T16:42:47.728Z,46.05
2023-11-19T16:45:49.758Z,39.10
2023-11-19T16:48:51.811Z,23.80
2023-11-19T16:51:54.628Z,26.55
2023-11-19T16:54:57.003Z,26.80
2023-11-19T16:58:00.513Z,36.83
2023-11-19T17:01:02.647Z,32.97
2023-11-19T17:04:09.096Z,38.53
2023-11-19T17:07:11.429Z,42.13
2023-11-19T17:10:13.613Z,39.53
2023-11-19T17:13:15.921Z,36.15
2023-11-19T17:16:18.712Z,31.95
2023-11-19T17:19:22.544Z,27.02
2023-11-19T17:22:24.632Z,24.70
2023-11-19T17:25:26.671Z,21.73
2023-11-19T17:28:28.798Z,21.25
2023-11-19T17:31:33.888Z,18.30
2023-11-19T17:34:36.116Z,27.17
2023-11-19T17:37:38.339Z,14.40
2023-11-19T17:40:40.465Z,15.33
2023-11-19T17:43:42.580Z,12.07
2023-11-19T17:46:44.830Z,15.05
2023-11-19T17:49:48.030Z,15.10
2023-11-19T17:52:50.270Z,15.48
2023-11-19T17:55:52.331Z,13.23
2023-11-19T17:58:54.414Z,13.38
2023-11-19T18:01:59.253Z,13.33
2023-11-19T18:05:02.429Z,15.85
2023-11-19T18:08:06.218Z,18.80
2023-11-19T18:11:11.424Z,17.00
2023-11-19T18:14:13.544Z,15.73
2023-11-19T18:17:16.277Z,14.13
2023-11-19T18:20:18.600Z,17.13
2023-11-19T18:23:20.791Z,16.20
2023-11-19T18:26:22.931Z,17.85
2023-11-19T18:29:25.072Z,14.10
2023-11-19T18:32:27.347Z,13.00
2023-11-19T18:35:29.652Z,14.07
2023-11-19T18:41:38.054Z,11.10
2023-11-19T18:44:40.188Z,11.88
2023-11-19T18:47:42.374Z,11.52
2023-11-19T18:53:49.607Z,13.38
2023-11-19T18:56:54.753Z,15.93
2023-11-19T18:59:56.799Z,15.60
2023-11-19T19:06:05.555Z,15.40
2023-11-19T19:09:08.078Z,14.63
2023-11-19T19:12:10.228Z,15.40
2023-11-19T19:15:17.034Z,17.13
2023-11-19T19:18:19.660Z,25.10
2023-11-19T19:21:22.605Z,18.23
2023-11-19T19:24:25.446Z,18.25
2023-11-19T19:27:27.671Z,17.77
2023-11-19T19:30:29.763Z,16.10
2023-11-19T19:33:31.881Z,15.10
2023-11-19T19:36:34.136Z,15.88
2023-11-19T19:39:36.272Z,14.90
2023-11-19T19:42:42.369Z,14.70
2023-11-19T19:45:44.484Z,13.85
2023-11-19T19:48:46.581Z,15.30
2023-11-19T19:51:48.682Z,19.83
2023-11-19T19:54:50.816Z,20.52
2023-11-19T19:57:52.877Z,16.83
2023-11-19T20:00:55.215Z,18.00
2023-11-19T20:03:57.794Z,18.30
2023-11-19T20:07:00.100Z,32.63
2023-11-19T20:10:02.405Z,29.33
2023-11-19T20:13:11.281Z,28.47
2023-11-19T20:16:13.492Z,21.13
2023-11-19T20:19:16.073Z,22.52
2023-11-19T20:22:18.156Z,23.05
2023-11-19T20:25:20.210Z,19.48
2023-11-19T20:28:22.361Z,16.05
2023-11-19T20:31:24.850Z,15.27
2023-11-19T20:34:27.714Z,12.47
2023-11-19T20:37:31.444Z,11.40
2023-11-19T20:40:33.670Z,12.45
2023-11-19T20:43:35.881Z,11.57
2023-11-19T20:46:38.139Z,13.00
2023-11-19T20:49:40.347Z,13.05
2023-11-19T20:52:42.577Z,14.38
2023-11-19T20:55:46.273Z,16.52
2023-11-19T20:58:48.418Z,12.60
2023-11-19T21:01:50.517Z,11.10
2023-11-19T21:04:52.610Z,11.40
2023-11-19T21:07:54.673Z,15.32
2023-11-19T21:10:56.721Z,13.23
2023-11-19T21:13:58.825Z,10.83
2023-11-19T21:17:01.343Z,11.60
2023-11-19T21:20:04.248Z,12.90
2023-11-19T21:23:06.589Z,14.38
2023-11-19T21:26:08.727Z,13.52
2023-11-19T21:29:12.406Z,13.50
2023-11-19T21:32:14.604Z,13.90
2023-11-19T21:35:16.650Z,13.07
2023-11-19T21:38:19.820Z,13.63
2023-11-19T21:41:23.120Z,13.43
2023-11-19T21:44:25.249Z,15.80
2023-11-19T21:47:27.434Z,12.85
2023-11-19T21:50:29.595Z,17.30
2023-11-19T21:53:31.723Z,16.77
2023-11-19T21:56:33.793Z,18.05
2023-11-19T21:59:35.957Z,17.52
2023-11-19T22:02:38.189Z,16.45
2023-11-19T22:05:40.351Z,15.40
2023-11-19T22:08:44.166Z,15.90
2023-11-19T22:11:48.177Z,15.88
2023-11-19T22:14:50.238Z,17.53
2023-11-19T22:17:54.416Z,14.73
2023-11-19T22:20:56.666Z,15.52
2023-11-19T22:23:59.349Z,16.17
2023-11-19T22:27:01.411Z,19.80
2023-11-19T22:30:03.737Z,20.35
2023-11-19T22:33:08.479Z,23.15
2023-11-19T22:36:11.694Z,29.83
2023-11-19T22:39:13.789Z,22.15
2023-11-19T22:42:16.019Z,20.50
2023-11-19T22:45:18.147Z,19.90
2023-11-19T22:48:20.288Z,16.58
2023-11-19T22:51:22.387Z,13.48
2023-11-19T22:54:24.538Z,14.80
2023-11-19T22:57:26.686Z,14.15
2023-11-19T23:00:29.572Z,13.55
2023-11-19T23:03:33.369Z,9.32
2023-11-19T23:06:35.569Z,13.03
2023-11-19T23:09:39.854Z,12.07
2023-11-19T23:12:42.055Z,10.82
2023-11-19T23:15:44.564Z,13.03
2023-11-19T23:18:46.802Z,12.88
2023-11-19T23:21:49.251Z,11.57
2023-11-19T23:24:51.866Z,11.20
2023-11-19T23:27:53.954Z,13.48
2023-11-19T23:30:56.174Z,11.23
2023-11-19T23:33:58.330Z,12.70
2023-11-19T23:37:00.425Z,12.10
2023-11-19T23:40:02.800Z,12.95
2023-11-19T23:43:05.029Z,12.18
2023-11-19T23:46:09.934Z,13.83
2023-11-19T23:49:13.189Z,14.43
2023-11-19T23:52:15.278Z,14.00
2023-11-19T23:55:17.451Z,12.95
2023-11-19T23:58:19.552Z,11.85
